sensor_id;sensor_type;location;lat;lon;timestamp;P1;durP1;ratioP1;P2;durP2;ratioP2
10414;SDS011;5254;47.696;9.138;2022-08-04T00:00:27;5.82;;;3.67;;
10414;SDS011;5254;47.696;9.138;2022-08-04T00:08:37;5.65;;;3.67;;
10414;SDS011;5254;47.696;9.138;2022-08-04T00:11:08;5.18;;;3.20;;
10414;SDS011;5254;47.696;9.138;2022-08-04T00:13:38;4.43;;;3.05;;
10414;SDS011;5254;47.696;9.138;2022-08-04T00:16:09;5.30;;;3.30;;
10414;SDS011;5254;47.696;9.138;2022-08-04T00:18:44;5.85;;;3.30;;
10414;SDS011;5254;47.696;9.138;2022-08-04T00:21:15;5.55;;;3.40;;
10414;SDS011;5254;47.696;9.138;2022-08-04T00:23:43;5.07;;;3.30;;
10414;SDS011;5254;47.696;9.138;2022-08-04T00:26:09;4.53;;;2.80;;
10414;SDS011;5254;47.696;9.138;2022-08-04T00:28:36;5.45;;;3.60;;
10414;SDS011;5254;47.696;9.138;2022-08-04T00:31:03;7.15;;;3.67;;
10414;SDS011;5254;47.696;9.138;2022-08-04T00:33:30;6.25;;;3.92;;
10414;SDS011;5254;47.696;9.138;2022-08-04T00:35:57;4.10;;;2.75;;
10414;SDS011;5254;47.696;9.138;2022-08-04T00:38:24;6.15;;;3.70;;
10414;SDS011;5254;47.696;9.138;2022-08-04T00:49:45;5.28;;;3.55;;
10414;SDS011;5254;47.696;9.138;2022-08-04T01:00:20;5.22;;;3.35;;
10414;SDS011;5254;47.696;9.138;2022-08-04T01:13:49;4.47;;;3.08;;
10414;SDS011;5254;47.696;9.138;2022-08-04T01:16:48;4.68;;;3.30;;
10414;SDS011;5254;47.696;9.138;2022-08-04T01:22:28;5.95;;;3.65;;
10414;SDS011;5254;47.696;9.138;2022-08-04T01:30:39;7.13;;;4.07;;
10414;SDS011;5254;47.696;9.138;2022-08-04T01:33:11;5.05;;;3.00;;
10414;SDS011;5254;47.696;9.138;2022-08-04T01:35:50;5.93;;;4.22;;
10414;SDS011;5254;47.696;9.138;2022-08-04T01:38:32;6.88;;;3.10;;
10414;SDS011;5254;47.696;9.138;2022-08-04T01:41:02;6.68;;;3.90;;
10414;SDS011;5254;47.696;9.138;2022-08-04T01:43:30;6.22;;;3.97;;
10414;SDS011;5254;47.696;9.138;2022-08-04T01:45:58;5.22;;;3.70;;
10414;SDS011;5254;47.696;9.138;2022-08-04T01:48:26;4.72;;;3.10;;
10414;SDS011;5254;47.696;9.138;2022-08-04T01:50:53;6.78;;;3.95;;
10414;SDS011;5254;47.696;9.138;2022-08-04T01:53:22;6.43;;;3.70;;
10414;SDS011;5254;47.696;9.138;2022-08-04T01:55:54;6.68;;;4.20;;
10414;SDS011;5254;47.696;9.138;2022-08-04T01:58:22;5.35;;;3.88;;
10414;SDS011;5254;47.696;9.138;2022-08-04T02:00:56;5.07;;;3.10;;
10414;SDS011;5254;47.696;9.138;2022-08-04T02:03:26;5.75;;;3.85;;
10414;SDS011;5254;47.696;9.138;2022-08-04T02:05:54;5.32;;;4.03;;
10414;SDS011;5254;47.696;9.138;2022-08-04T02:08:35;5.97;;;3.97;;
10414;SDS011;5254;47.696;9.138;2022-08-04T02:22:39;6.97;;;3.75;;
10414;SDS011;5254;47.696;9.138;2022-08-04T02:25:24;4.60;;;3.20;;
10414;SDS011;5254;47.696;9.138;2022-08-04T02:28:01;5.70;;;3.70;;
10414;SDS011;5254;47.696;9.138;2022-08-04T02:30:34;5.15;;;3.30;;
10414;SDS011;5254;47.696;9.138;2022-08-04T02:33:05;5.88;;;3.75;;
10414;SDS011;5254;47.696;9.138;2022-08-04T02:35:37;6.40;;;4.05;;
10414;SDS011;5254;47.696;9.138;2022-08-04T02:38:10;4.68;;;3.03;;
10414;SDS011;5254;47.696;9.138;2022-08-04T02:40:48;5.32;;;3.83;;
10414;SDS011;5254;47.696;9.138;2022-08-04T02:43:17;5.00;;;3.70;;
10414;SDS011;5254;47.696;9.138;2022-08-04T02:45:44;4.50;;;3.20;;
10414;SDS011;5254;47.696;9.138;2022-08-04T02:48:12;6.53;;;3.97;;
10414;SDS011;5254;47.696;9.138;2022-08-04T02:50:39;4.57;;;3.35;;
10414;SDS011;5254;47.696;9.138;2022-08-04T02:53:07;6.30;;;4.18;;
10414;SDS011;5254;47.696;9.138;2022-08-04T02:55:38;5.93;;;3.78;;
10414;SDS011;5254;47.696;9.138;2022-08-04T02:58:05;9.43;;;3.65;;
10414;SDS011;5254;47.696;9.138;2022-08-04T03:00:33;5.70;;;3.95;;
10414;SDS011;5254;47.696;9.138;2022-08-04T03:03:06;6.07;;;3.70;;
10414;SDS011;5254;47.696;9.138;2022-08-04T03:05:50;5.30;;;3.63;;
10414;SDS011;5254;47.696;9.138;2022-08-04T03:11:52;6.05;;;3.88;;
10414;SDS011;5254;47.696;9.138;2022-08-04T03:14:38;5.45;;;3.95;;
10414;SDS011;5254;47.696;9.138;2022-08-04T03:22:58;6.97;;;4.15;;
10414;SDS011;5254;47.696;9.138;2022-08-04T03:25:43;5.28;;;3.83;;
10414;SDS011;5254;47.696;9.138;2022-08-04T03:37:22;5.35;;;3.72;;
10414;SDS011;5254;47.696;9.138;2022-08-04T03:45:58;5.72;;;3.50;;
10414;SDS011;5254;47.696;9.138;2022-08-04T04:14:24;6.75;;;4.18;;
10414;SDS011;5254;47.696;9.138;2022-08-04T04:25:21;5.78;;;4.25;;
10414;SDS011;5254;47.696;9.138;2022-08-04T04:39:03;6.53;;;4.35;;
10414;SDS011;5254;47.696;9.138;2022-08-04T04:53:28;5.65;;;3.53;;
10414;SDS011;5254;47.696;9.138;2022-08-04T04:56:10;8.55;;;4.93;;
10414;SDS011;5254;47.696;9.138;2022-08-04T04:58:51;8.35;;;4.07;;
10414;SDS011;5254;47.696;9.138;2022-08-04T05:06:48;7.55;;;4.22;;
10414;SDS011;5254;47.696;9.138;2022-08-04T05:12:24;7.15;;;4.35;;
10414;SDS011;5254;47.696;9.138;2022-08-04T05:15:09;6.63;;;3.60;;
10414;SDS011;5254;47.696;9.138;2022-08-04T05:17:38;6.97;;;4.15;;
10414;SDS011;5254;47.696;9.138;2022-08-04T05:25:07;6.43;;;3.97;;
10414;SDS011;5254;47.696;9.138;2022-08-04T05:27:40;4.70;;;3.35;;
10414;SDS011;5254;47.696;9.138;2022-08-04T05:30:10;8.27;;;4.38;;
10414;SDS011;5254;47.696;9.138;2022-08-04T05:32:42;6.57;;;3.75;;
10414;SDS011;5254;47.696;9.138;2022-08-04T05:35:14;7.60;;;4.45;;
10414;SDS011;5254;47.696;9.138;2022-08-04T05:37:45;7.13;;;4.32;;
10414;SDS011;5254;47.696;9.138;2022-08-04T05:40:15;9.05;;;5.20;;
10414;SDS011;5254;47.696;9.138;2022-08-04T05:42:43;7.30;;;4.80;;
10414;SDS011;5254;47.696;9.138;2022-08-04T05:45:09;6.03;;;3.90;;
10414;SDS011;5254;47.696;9.138;2022-08-04T05:47:35;7.95;;;4.75;;
10414;SDS011;5254;47.696;9.138;2022-08-04T05:50:01;6.82;;;5.00;;
10414;SDS011;5254;47.696;9.138;2022-08-04T05:52:29;7.40;;;4.50;;
10414;SDS011;5254;47.696;9.138;2022-08-04T05:54:57;5.80;;;3.80;;
10414;SDS011;5254;47.696;9.138;2022-08-04T05:57:24;6.70;;;4.70;;
10414;SDS011;5254;47.696;9.138;2022-08-04T05:59:50;7.15;;;4.50;;
10414;SDS011;5254;47.696;9.138;2022-08-04T06:02:19;6.80;;;5.00;;
10414;SDS011;5254;47.696;9.138;2022-08-04T06:04:46;6.32;;;4.60;;
10414;SDS011;5254;47.696;9.138;2022-08-04T06:07:14;9.40;;;4.43;;
10414;SDS011;5254;47.696;9.138;2022-08-04T06:09:40;6.38;;;4.57;;
10414;SDS011;5254;47.696;9.138;2022-08-04T06:12:08;6.95;;;4.50;;
10414;SDS011;5254;47.696;9.138;2022-08-04T06:14:45;7.88;;;5.10;;
10414;SDS011;5254;47.696;9.138;2022-08-04T06:17:14;7.43;;;4.53;;
10414;SDS011;5254;47.696;9.138;2022-08-04T06:19:55;7.75;;;4.70;;
10414;SDS011;5254;47.696;9.138;2022-08-04T06:22:22;6.20;;;4.00;;
10414;SDS011;5254;47.696;9.138;2022-08-04T06:24:48;6.60;;;4.60;;
10414;SDS011;5254;47.696;9.138;2022-08-04T06:27:16;5.97;;;4.28;;
10414;SDS011;5254;47.696;9.138;2022-08-04T06:29:44;7.55;;;4.15;;
10414;SDS011;5254;47.696;9.138;2022-08-04T06:32:11;7.97;;;4.05;;
10414;SDS011;5254;47.696;9.138;2022-08-04T06:34:58;6.15;;;4.25;;
10414;SDS011;5254;47.696;9.138;2022-08-04T06:37:29;6.55;;;4.30;;
10414;SDS011;5254;47.696;9.138;2022-08-04T06:39:56;7.20;;;4.72;;
10414;SDS011;5254;47.696;9.138;2022-08-04T06:42:23;7.18;;;4.30;;
10414;SDS011;5254;47.696;9.138;2022-08-04T06:44:51;8.68;;;4.40;;
10414;SDS011;5254;47.696;9.138;2022-08-04T06:47:20;5.85;;;4.28;;
10414;SDS011;5254;47.696;9.138;2022-08-04T06:49:48;8.20;;;6.00;;
10414;SDS011;5254;47.696;9.138;2022-08-04T06:52:15;5.90;;;3.90;;
10414;SDS011;5254;47.696;9.138;2022-08-04T06:54:44;17.08;;;9.65;;
10414;SDS011;5254;47.696;9.138;2022-08-04T06:57:17;11.20;;;5.32;;
10414;SDS011;5254;47.696;9.138;2022-08-04T07:00:07;7.50;;;4.45;;
10414;SDS011;5254;47.696;9.138;2022-08-04T07:02:54;7.00;;;4.30;;
10414;SDS011;5254;47.696;9.138;2022-08-04T07:05:21;6.30;;;3.80;;
10414;SDS011;5254;47.696;9.138;2022-08-04T07:07:47;6.00;;;4.20;;
10414;SDS011;5254;47.696;9.138;2022-08-04T07:10:14;6.97;;;4.32;;
10414;SDS011;5254;47.696;9.138;2022-08-04T07:12:41;6.32;;;4.10;;
10414;SDS011;5254;47.696;9.138;2022-08-04T07:15:07;6.45;;;4.20;;
10414;SDS011;5254;47.696;9.138;2022-08-04T07:17:34;6.32;;;4.85;;
10414;SDS011;5254;47.696;9.138;2022-08-04T07:20:01;7.97;;;4.68;;
10414;SDS011;5254;47.696;9.138;2022-08-04T07:22:29;5.90;;;4.38;;
10414;SDS011;5254;47.696;9.138;2022-08-04T07:24:55;5.40;;;4.05;;
10414;SDS011;5254;47.696;9.138;2022-08-04T07:27:22;6.18;;;3.97;;
10414;SDS011;5254;47.696;9.138;2022-08-04T07:29:49;6.20;;;4.28;;
10414;SDS011;5254;47.696;9.138;2022-08-04T07:32:17;6.40;;;3.80;;
10414;SDS011;5254;47.696;9.138;2022-08-04T07:34:45;5.65;;;3.95;;
10414;SDS011;5254;47.696;9.138;2022-08-04T07:37:15;5.53;;;3.90;;
10414;SDS011;5254;47.696;9.138;2022-08-04T07:39:41;5.35;;;3.90;;
10414;SDS011;5254;47.696;9.138;2022-08-04T07:42:07;6.80;;;4.00;;
10414;SDS011;5254;47.696;9.138;2022-08-04T07:44:33;5.95;;;3.92;;
10414;SDS011;5254;47.696;9.138;2022-08-04T07:47:00;6.60;;;4.38;;
10414;SDS011;5254;47.696;9.138;2022-08-04T07:49:27;5.88;;;4.32;;
10414;SDS011;5254;47.696;9.138;2022-08-04T07:51:54;6.40;;;4.55;;
10414;SDS011;5254;47.696;9.138;2022-08-04T07:54:20;7.20;;;4.20;;
10414;SDS011;5254;47.696;9.138;2022-08-04T07:56:46;7.68;;;4.43;;
10414;SDS011;5254;47.696;9.138;2022-08-04T07:59:14;5.82;;;4.32;;
10414;SDS011;5254;47.696;9.138;2022-08-04T08:01:40;6.40;;;4.10;;
10414;SDS011;5254;47.696;9.138;2022-08-04T08:04:07;7.10;;;4.90;;
10414;SDS011;5254;47.696;9.138;2022-08-04T08:06:35;6.13;;;4.35;;
10414;SDS011;5254;47.696;9.138;2022-08-04T08:09:10;5.60;;;4.38;;
10414;SDS011;5254;47.696;9.138;2022-08-04T08:11:37;8.02;;;4.43;;
10414;SDS011;5254;47.696;9.138;2022-08-04T08:14:03;6.57;;;4.35;;
10414;SDS011;5254;47.696;9.138;2022-08-04T08:16:32;6.75;;;4.10;;
10414;SDS011;5254;47.696;9.138;2022-08-04T08:18:59;9.13;;;4.40;;
10414;SDS011;5254;47.696;9.138;2022-08-04T08:21:26;5.05;;;4.03;;
10414;SDS011;5254;47.696;9.138;2022-08-04T08:23:51;6.93;;;4.45;;
10414;SDS011;5254;47.696;9.138;2022-08-04T08:26:18;6.90;;;4.70;;
10414;SDS011;5254;47.696;9.138;2022-08-04T08:28:43;6.50;;;4.30;;
10414;SDS011;5254;47.696;9.138;2022-08-04T08:31:09;7.05;;;4.32;;
10414;SDS011;5254;47.696;9.138;2022-08-04T08:33:35;6.80;;;5.03;;
10414;SDS011;5254;47.696;9.138;2022-08-04T08:38:51;7.63;;;4.65;;
10414;SDS011;5254;47.696;9.138;2022-08-04T08:55:21;5.93;;;4.60;;
10414;SDS011;5254;47.696;9.138;2022-08-04T09:00:44;9.25;;;4.90;;
10414;SDS011;5254;47.696;9.138;2022-08-04T09:03:26;6.43;;;4.78;;
10414;SDS011;5254;47.696;9.138;2022-08-04T09:06:17;7.85;;;4.82;;
10414;SDS011;5254;47.696;9.138;2022-08-04T09:11:43;6.70;;;4.97;;
10414;SDS011;5254;47.696;9.138;2022-08-04T09:14:16;6.85;;;3.90;;
10414;SDS011;5254;47.696;9.138;2022-08-04T09:16:56;6.75;;;4.60;;
10414;SDS011;5254;47.696;9.138;2022-08-04T09:19:38;7.90;;;4.93;;
10414;SDS011;5254;47.696;9.138;2022-08-04T09:22:18;5.53;;;4.50;;
10414;SDS011;5254;47.696;9.138;2022-08-04T09:30:07;6.60;;;4.32;;
10414;SDS011;5254;47.696;9.138;2022-08-04T09:35:41;5.80;;;4.55;;
10414;SDS011;5254;47.696;9.138;2022-08-04T09:38:32;6.03;;;4.18;;
10414;SDS011;5254;47.696;9.138;2022-08-04T09:43:57;6.53;;;4.50;;
10414;SDS011;5254;47.696;9.138;2022-08-04T09:46:58;5.32;;;4.05;;
10414;SDS011;5254;47.696;9.138;2022-08-04T09:49:49;6.30;;;4.90;;
10414;SDS011;5254;47.696;9.138;2022-08-04T10:00:39;6.25;;;4.38;;
10414;SDS011;5254;47.696;9.138;2022-08-04T10:03:11;5.45;;;4.25;;
10414;SDS011;5254;47.696;9.138;2022-08-04T10:08:53;5.82;;;4.30;;
10414;SDS011;5254;47.696;9.138;2022-08-04T10:11:26;7.05;;;4.60;;
10414;SDS011;5254;47.696;9.138;2022-08-04T10:19:44;6.03;;;4.28;;
10414;SDS011;5254;47.696;9.138;2022-08-04T10:22:24;6.15;;;4.78;;
10414;SDS011;5254;47.696;9.138;2022-08-04T10:27:57;5.63;;;4.47;;
10414;SDS011;5254;47.696;9.138;2022-08-04T10:30:26;5.88;;;4.90;;
10414;SDS011;5254;47.696;9.138;2022-08-04T10:33:20;6.63;;;4.55;;
10414;SDS011;5254;47.696;9.138;2022-08-04T10:35:49;5.68;;;4.60;;
10414;SDS011;5254;47.696;9.138;2022-08-04T10:41:25;5.85;;;4.38;;
10414;SDS011;5254;47.696;9.138;2022-08-04T10:47:00;6.88;;;4.43;;
10414;SDS011;5254;47.696;9.138;2022-08-04T10:49:36;5.50;;;4.40;;
10414;SDS011;5254;47.696;9.138;2022-08-04T10:52:16;7.80;;;4.22;;
10414;SDS011;5254;47.696;9.138;2022-08-04T10:55:11;6.20;;;4.35;;
10414;SDS011;5254;47.696;9.138;2022-08-04T10:57:46;6.95;;;4.60;;
10414;SDS011;5254;47.696;9.138;2022-08-04T11:00:20;6.53;;;4.40;;
10414;SDS011;5254;47.696;9.138;2022-08-04T11:08:27;11.45;;;4.35;;
10414;SDS011;5254;47.696;9.138;2022-08-04T11:11:04;6.55;;;4.30;;
10414;SDS011;5254;47.696;9.138;2022-08-04T11:13:48;6.05;;;4.25;;
10414;SDS011;5254;47.696;9.138;2022-08-04T11:16:43;6.18;;;3.80;;
10414;SDS011;5254;47.696;9.138;2022-08-04T11:21:58;4.90;;;3.83;;
10414;SDS011;5254;47.696;9.138;2022-08-04T11:24:54;6.68;;;4.45;;
10414;SDS011;5254;47.696;9.138;2022-08-04T11:39:13;6.10;;;4.22;;
10414;SDS011;5254;47.696;9.138;2022-08-04T11:44:42;6.40;;;4.72;;
10414;SDS011;5254;47.696;9.138;2022-08-04T11:47:35;6.70;;;4.50;;
10414;SDS011;5254;47.696;9.138;2022-08-04T11:52:53;7.60;;;4.68;;
10414;SDS011;5254;47.696;9.138;2022-08-04T11:55:21;6.88;;;4.20;;
10414;SDS011;5254;47.696;9.138;2022-08-04T11:57:53;5.70;;;4.35;;
10414;SDS011;5254;47.696;9.138;2022-08-04T12:00:20;7.03;;;4.50;;
10414;SDS011;5254;47.696;9.138;2022-08-04T12:05:59;7.05;;;4.50;;
10414;SDS011;5254;47.696;9.138;2022-08-04T12:11:45;6.13;;;4.18;;
10414;SDS011;5254;47.696;9.138;2022-08-04T12:20:13;7.47;;;3.97;;
10414;SDS011;5254;47.696;9.138;2022-08-04T12:22:45;7.47;;;4.03;;
10414;SDS011;5254;47.696;9.138;2022-08-04T12:25:35;6.35;;;3.40;;
10414;SDS011;5254;47.696;9.138;2022-08-04T12:28:04;5.00;;;3.65;;
10414;SDS011;5254;47.696;9.138;2022-08-04T12:30:50;7.80;;;3.75;;
10414;SDS011;5254;47.696;9.138;2022-08-04T12:33:33;5.15;;;3.38;;
10414;SDS011;5254;47.696;9.138;2022-08-04T12:36:50;6.53;;;3.88;;
10414;SDS011;5254;47.696;9.138;2022-08-04T12:39:15;6.03;;;3.35;;
10414;SDS011;5254;47.696;9.138;2022-08-04T12:44:32;6.40;;;3.22;;
10414;SDS011;5254;47.696;9.138;2022-08-04T12:47:00;6.82;;;3.70;;
10414;SDS011;5254;47.696;9.138;2022-08-04T12:49:30;7.68;;;3.95;;
10414;SDS011;5254;47.696;9.138;2022-08-04T12:51:58;7.70;;;3.88;;
10414;SDS011;5254;47.696;9.138;2022-08-04T12:54:24;5.88;;;3.80;;
10414;SDS011;5254;47.696;9.138;2022-08-04T12:56:52;5.40;;;3.00;;
10414;SDS011;5254;47.696;9.138;2022-08-04T12:59:22;6.25;;;3.00;;
10414;SDS011;5254;47.696;9.138;2022-08-04T13:01:48;6.00;;;3.25;;
10414;SDS011;5254;47.696;9.138;2022-08-04T13:04:22;3.78;;;2.80;;
10414;SDS011;5254;47.696;9.138;2022-08-04T13:07:05;4.57;;;2.67;;
10414;SDS011;5254;47.696;9.138;2022-08-04T13:09:34;4.50;;;2.80;;
10414;SDS011;5254;47.696;9.138;2022-08-04T13:12:03;5.72;;;3.70;;
10414;SDS011;5254;47.696;9.138;2022-08-04T13:14:39;5.28;;;3.13;;
10414;SDS011;5254;47.696;9.138;2022-08-04T13:17:08;4.95;;;3.15;;
10414;SDS011;5254;47.696;9.138;2022-08-04T13:19:38;4.68;;;3.00;;
10414;SDS011;5254;47.696;9.138;2022-08-04T13:22:10;5.88;;;3.67;;
10414;SDS011;5254;47.696;9.138;2022-08-04T13:24:40;3.55;;;2.63;;
10414;SDS011;5254;47.696;9.138;2022-08-04T13:27:08;4.53;;;2.70;;
10414;SDS011;5254;47.696;9.138;2022-08-04T13:29:38;6.80;;;3.03;;
10414;SDS011;5254;47.696;9.138;2022-08-04T13:32:05;3.60;;;2.42;;
10414;SDS011;5254;47.696;9.138;2022-08-04T13:34:33;4.18;;;2.80;;
10414;SDS011;5254;47.696;9.138;2022-08-04T13:37:00;4.80;;;2.75;;
10414;SDS011;5254;47.696;9.138;2022-08-04T13:39:27;5.53;;;2.70;;
10414;SDS011;5254;47.696;9.138;2022-08-04T13:41:54;5.18;;;3.38;;
10414;SDS011;5254;47.696;9.138;2022-08-04T13:44:25;4.53;;;3.00;;
10414;SDS011;5254;47.696;9.138;2022-08-04T13:47:27;4.68;;;2.75;;
10414;SDS011;5254;47.696;9.138;2022-08-04T13:52:43;4.07;;;2.50;;
10414;SDS011;5254;47.696;9.138;2022-08-04T13:57:55;4.78;;;2.40;;
10414;SDS011;5254;47.696;9.138;2022-08-04T14:00:52;5.22;;;2.60;;
10414;SDS011;5254;47.696;9.138;2022-08-04T14:03:33;3.67;;;2.40;;
10414;SDS011;5254;47.696;9.138;2022-08-04T14:06:17;3.65;;;2.55;;
10414;SDS011;5254;47.696;9.138;2022-08-04T14:08:51;5.32;;;2.83;;
10414;SDS011;5254;47.696;9.138;2022-08-04T14:11:29;3.90;;;2.70;;
10414;SDS011;5254;47.696;9.138;2022-08-04T14:13:56;3.90;;;2.50;;
10414;SDS011;5254;47.696;9.138;2022-08-04T14:16:21;3.80;;;2.63;;
10414;SDS011;5254;47.696;9.138;2022-08-04T14:18:56;4.55;;;2.42;;
10414;SDS011;5254;47.696;9.138;2022-08-04T14:21:24;5.32;;;2.55;;
10414;SDS011;5254;47.696;9.138;2022-08-04T14:23:54;4.07;;;2.47;;
10414;SDS011;5254;47.696;9.138;2022-08-04T14:26:28;4.22;;;2.80;;
10414;SDS011;5254;47.696;9.138;2022-08-04T14:29:08;4.78;;;2.60;;
10414;SDS011;5254;47.696;9.138;2022-08-04T14:31:41;6.22;;;2.60;;
10414;SDS011;5254;47.696;9.138;2022-08-04T14:34:08;3.67;;;2.55;;
10414;SDS011;5254;47.696;9.138;2022-08-04T14:36:41;4.43;;;2.70;;
10414;SDS011;5254;47.696;9.138;2022-08-04T14:39:08;4.40;;;2.80;;
10414;SDS011;5254;47.696;9.138;2022-08-04T14:41:44;5.85;;;2.47;;
10414;SDS011;5254;47.696;9.138;2022-08-04T14:44:14;4.93;;;2.67;;
10414;SDS011;5254;47.696;9.138;2022-08-04T14:46:50;5.72;;;2.65;;
10414;SDS011;5254;47.696;9.138;2022-08-04T14:49:19;4.15;;;2.65;;
10414;SDS011;5254;47.696;9.138;2022-08-04T14:51:53;3.90;;;2.60;;
10414;SDS011;5254;47.696;9.138;2022-08-04T14:54:25;4.82;;;2.35;;
10414;SDS011;5254;47.696;9.138;2022-08-04T14:56:53;6.47;;;2.83;;
10414;SDS011;5254;47.696;9.138;2022-08-04T14:59:21;3.78;;;2.67;;
10414;SDS011;5254;47.696;9.138;2022-08-04T15:01:48;5.65;;;2.75;;
10414;SDS011;5254;47.696;9.138;2022-08-04T15:04:15;4.88;;;2.63;;
10414;SDS011;5254;47.696;9.138;2022-08-04T15:06:41;4.85;;;2.72;;
10414;SDS011;5254;47.696;9.138;2022-08-04T15:09:08;4.35;;;2.90;;
10414;SDS011;5254;47.696;9.138;2022-08-04T15:11:35;4.00;;;2.63;;
10414;SDS011;5254;47.696;9.138;2022-08-04T15:14:02;4.35;;;2.95;;
10414;SDS011;5254;47.696;9.138;2022-08-04T15:16:29;3.90;;;2.53;;
10414;SDS011;5254;47.696;9.138;2022-08-04T15:18:57;6.15;;;2.58;;
10414;SDS011;5254;47.696;9.138;2022-08-04T15:21:23;3.65;;;2.50;;
10414;SDS011;5254;47.696;9.138;2022-08-04T15:23:52;3.75;;;2.60;;
10414;SDS011;5254;47.696;9.138;2022-08-04T15:26:24;3.50;;;2.33;;
10414;SDS011;5254;47.696;9.138;2022-08-04T15:28:57;6.25;;;2.53;;
10414;SDS011;5254;47.696;9.138;2022-08-04T15:31:45;4.45;;;2.70;;
10414;SDS011;5254;47.696;9.138;2022-08-04T15:34:12;3.90;;;2.28;;
10414;SDS011;5254;47.696;9.138;2022-08-04T15:47:34;5.97;;;2.70;;
10414;SDS011;5254;47.696;9.138;2022-08-04T15:50:01;3.60;;;2.50;;
10414;SDS011;5254;47.696;9.138;2022-08-04T15:52:27;4.07;;;2.60;;
10414;SDS011;5254;47.696;9.138;2022-08-04T15:55:28;3.67;;;2.70;;
10414;SDS011;5254;47.696;9.138;2022-08-04T15:58:04;5.20;;;2.65;;
10414;SDS011;5254;47.696;9.138;2022-08-04T16:09:18;5.10;;;2.80;;
10414;SDS011;5254;47.696;9.138;2022-08-04T16:19:05;5.35;;;2.75;;
10414;SDS011;5254;47.696;9.138;2022-08-04T16:24:20;4.45;;;2.90;;
10414;SDS011;5254;47.696;9.138;2022-08-04T16:26:49;4.28;;;2.80;;
10414;SDS011;5254;47.696;9.138;2022-08-04T16:32:05;3.95;;;2.40;;
10414;SDS011;5254;47.696;9.138;2022-08-04T16:37:14;3.35;;;2.50;;
10414;SDS011;5254;47.696;9.138;2022-08-04T16:39:42;4.45;;;2.75;;
10414;SDS011;5254;47.696;9.138;2022-08-04T16:50:13;5.45;;;2.67;;
10414;SDS011;5254;47.696;9.138;2022-08-04T16:52:41;5.15;;;2.67;;
10414;SDS011;5254;47.696;9.138;2022-08-04T16:55:15;4.72;;;2.78;;
10414;SDS011;5254;47.696;9.138;2022-08-04T16:57:49;5.35;;;2.80;;
10414;SDS011;5254;47.696;9.138;2022-08-04T17:00:17;5.45;;;2.80;;
10414;SDS011;5254;47.696;9.138;2022-08-04T17:02:53;3.72;;;2.70;;
10414;SDS011;5254;47.696;9.138;2022-08-04T17:05:20;3.42;;;2.60;;
10414;SDS011;5254;47.696;9.138;2022-08-04T17:07:48;4.07;;;2.67;;
10414;SDS011;5254;47.696;9.138;2022-08-04T17:10:15;4.53;;;2.53;;
10414;SDS011;5254;47.696;9.138;2022-08-04T17:12:40;5.68;;;2.88;;
10414;SDS011;5254;47.696;9.138;2022-08-04T17:15:21;4.63;;;2.95;;
10414;SDS011;5254;47.696;9.138;2022-08-04T17:17:48;4.82;;;2.70;;
10414;SDS011;5254;47.696;9.138;2022-08-04T17:20:14;4.90;;;2.75;;
10414;SDS011;5254;47.696;9.138;2022-08-04T17:22:40;6.47;;;2.90;;
10414;SDS011;5254;47.696;9.138;2022-08-04T17:25:07;6.10;;;2.95;;
10414;SDS011;5254;47.696;9.138;2022-08-04T17:27:33;4.82;;;2.97;;
10414;SDS011;5254;47.696;9.138;2022-08-04T17:29:59;4.30;;;2.90;;
10414;SDS011;5254;47.696;9.138;2022-08-04T17:32:25;4.60;;;3.00;;
10414;SDS011;5254;47.696;9.138;2022-08-04T17:34:54;5.43;;;2.83;;
10414;SDS011;5254;47.696;9.138;2022-08-04T17:37:22;3.50;;;2.60;;
10414;SDS011;5254;47.696;9.138;2022-08-04T17:39:49;6.30;;;2.92;;
10414;SDS011;5254;47.696;9.138;2022-08-04T17:42:28;5.13;;;3.08;;
10414;SDS011;5254;47.696;9.138;2022-08-04T17:45:09;4.38;;;2.80;;
10414;SDS011;5254;47.696;9.138;2022-08-04T17:47:51;3.58;;;2.72;;
10414;SDS011;5254;47.696;9.138;2022-08-04T17:50:27;4.80;;;3.25;;
10414;SDS011;5254;47.696;9.138;2022-08-04T17:53:04;4.68;;;3.00;;
10414;SDS011;5254;47.696;9.138;2022-08-04T17:56:04;4.00;;;2.60;;
10414;SDS011;5254;47.696;9.138;2022-08-04T17:58:22;5.30;;;2.97;;
10414;SDS011;5254;47.696;9.138;2022-08-04T18:00:58;5.32;;;2.85;;
10414;SDS011;5254;47.696;9.138;2022-08-04T18:03:27;4.13;;;3.08;;
10414;SDS011;5254;47.696;9.138;2022-08-04T18:05:53;5.75;;;2.90;;
10414;SDS011;5254;47.696;9.138;2022-08-04T18:08:25;5.38;;;3.03;;
10414;SDS011;5254;47.696;9.138;2022-08-04T18:10:52;5.75;;;3.13;;
10414;SDS011;5254;47.696;9.138;2022-08-04T18:13:19;4.43;;;3.03;;
10414;SDS011;5254;47.696;9.138;2022-08-04T18:15:45;5.57;;;3.30;;
10414;SDS011;5254;47.696;9.138;2022-08-04T18:18:18;6.50;;;3.00;;
10414;SDS011;5254;47.696;9.138;2022-08-04T18:20:46;4.75;;;2.80;;
10414;SDS011;5254;47.696;9.138;2022-08-04T18:23:12;4.28;;;2.92;;
10414;SDS011;5254;47.696;9.138;2022-08-04T18:25:43;6.05;;;3.05;;
10414;SDS011;5254;47.696;9.138;2022-08-04T18:28:10;5.45;;;2.65;;
10414;SDS011;5254;47.696;9.138;2022-08-04T18:30:38;5.25;;;3.15;;
10414;SDS011;5254;47.696;9.138;2022-08-04T18:33:04;4.95;;;3.20;;
10414;SDS011;5254;47.696;9.138;2022-08-04T18:35:29;4.57;;;2.80;;
10414;SDS011;5254;47.696;9.138;2022-08-04T18:37:58;4.47;;;2.60;;
10414;SDS011;5254;47.696;9.138;2022-08-04T18:40:25;6.03;;;3.20;;
10414;SDS011;5254;47.696;9.138;2022-08-04T18:42:51;6.72;;;3.03;;
10414;SDS011;5254;47.696;9.138;2022-08-04T18:45:17;5.65;;;3.05;;
10414;SDS011;5254;47.696;9.138;2022-08-04T18:47:42;6.15;;;2.95;;
10414;SDS011;5254;47.696;9.138;2022-08-04T18:50:08;4.07;;;2.80;;
10414;SDS011;5254;47.696;9.138;2022-08-04T18:52:34;9.30;;;3.33;;
10414;SDS011;5254;47.696;9.138;2022-08-04T18:55:00;5.97;;;3.13;;
10414;SDS011;5254;47.696;9.138;2022-08-04T18:57:25;5.70;;;3.30;;
10414;SDS011;5254;47.696;9.138;2022-08-04T18:59:53;7.55;;;3.40;;
10414;SDS011;5254;47.696;9.138;2022-08-04T19:02:20;5.75;;;3.42;;
10414;SDS011;5254;47.696;9.138;2022-08-04T19:04:46;8.05;;;2.97;;
10414;SDS011;5254;47.696;9.138;2022-08-04T19:07:13;4.90;;;3.05;;
10414;SDS011;5254;47.696;9.138;2022-08-04T19:09:39;6.20;;;3.13;;
10414;SDS011;5254;47.696;9.138;2022-08-04T19:12:05;4.68;;;3.03;;
10414;SDS011;5254;47.696;9.138;2022-08-04T19:14:31;4.40;;;3.17;;
10414;SDS011;5254;47.696;9.138;2022-08-04T19:16:57;4.75;;;3.20;;
10414;SDS011;5254;47.696;9.138;2022-08-04T19:19:22;5.05;;;3.42;;
10414;SDS011;5254;47.696;9.138;2022-08-04T19:21:48;5.85;;;3.40;;
10414;SDS011;5254;47.696;9.138;2022-08-04T19:24:14;6.72;;;3.78;;
10414;SDS011;5254;47.696;9.138;2022-08-04T19:26:40;7.30;;;3.70;;
10414;SDS011;5254;47.696;9.138;2022-08-04T19:29:06;5.43;;;3.83;;
10414;SDS011;5254;47.696;9.138;2022-08-04T19:31:32;5.60;;;3.50;;
10414;SDS011;5254;47.696;9.138;2022-08-04T19:33:58;5.15;;;3.53;;
10414;SDS011;5254;47.696;9.138;2022-08-04T19:36:25;5.18;;;3.67;;
10414;SDS011;5254;47.696;9.138;2022-08-04T19:38:52;4.88;;;3.55;;
10414;SDS011;5254;47.696;9.138;2022-08-04T19:41:18;5.47;;;3.55;;
10414;SDS011;5254;47.696;9.138;2022-08-04T19:43:44;5.65;;;3.83;;
10414;SDS011;5254;47.696;9.138;2022-08-04T19:46:11;5.38;;;4.20;;
10414;SDS011;5254;47.696;9.138;2022-08-04T19:48:38;5.50;;;4.18;;
10414;SDS011;5254;47.696;9.138;2022-08-04T19:51:04;5.68;;;3.95;;
10414;SDS011;5254;47.696;9.138;2022-08-04T19:53:30;5.72;;;3.70;;
10414;SDS011;5254;47.696;9.138;2022-08-04T19:55:56;7.10;;;3.78;;
10414;SDS011;5254;47.696;9.138;2022-08-04T19:58:21;5.35;;;3.78;;
10414;SDS011;5254;47.696;9.138;2022-08-04T20:00:49;5.05;;;3.80;;
10414;SDS011;5254;47.696;9.138;2022-08-04T20:03:15;8.25;;;3.90;;
10414;SDS011;5254;47.696;9.138;2022-08-04T20:05:44;6.07;;;4.10;;
10414;SDS011;5254;47.696;9.138;2022-08-04T20:08:10;5.93;;;4.53;;
10414;SDS011;5254;47.696;9.138;2022-08-04T20:10:36;6.93;;;4.00;;
10414;SDS011;5254;47.696;9.138;2022-08-04T20:13:02;5.03;;;3.55;;
10414;SDS011;5254;47.696;9.138;2022-08-04T20:15:29;5.00;;;3.60;;
10414;SDS011;5254;47.696;9.138;2022-08-04T20:17:55;5.57;;;3.25;;
10414;SDS011;5254;47.696;9.138;2022-08-04T20:20:21;5.63;;;3.90;;
10414;SDS011;5254;47.696;9.138;2022-08-04T20:22:46;4.78;;;3.50;;